Kovel, Ukraine
Current Conditions -  °F | °C
As of 3:00 PM on Saturday 01 Nov 2014 (Local Time) from UKLR Reporting Station
Broken Clouds Broken Clouds  
Wind Chill: 41°   Ceiling: 10000
Heat Index: 45°   Visibility: 6mi
Dew Point: 36°   Wind: 7mph
Humidity: 71%   Direction: 290°WNW
Pressure: 30.24"   Gusts: NA
Location:  51.22°N, 24.72°E
Report Text: UKLR 011200Z 29003MPS 250V320 9999 SCT023 BKN100 07/02 Q1024 30090070 NOSIG
Loading
Personal Weather Stations






























Interactive Weather Map
Tropical Storm Tracking
New forecast layout! Learn more

10-Day Weather Forecast

Advertisements
Track Severe Weather on mobile